createdAt,value
2019-01-23T00:00:55.314Z,36.56
2019-01-23T00:03:26.872Z,36.52
2019-01-23T00:05:58.741Z,36.93
2019-01-23T00:08:29.765Z,37.58
2019-01-23T00:11:01.383Z,36.81
2019-01-23T00:13:33.381Z,37.36
2019-01-23T00:16:05.072Z,37.04
2019-01-23T00:18:36.796Z,37.38
2019-01-23T00:21:07.479Z,37.99
2019-01-23T00:23:39.323Z,37.66
2019-01-23T00:26:10.877Z,37.61
2019-01-23T00:28:42.537Z,37.21
2019-01-23T00:31:14.384Z,38.19
2019-01-23T00:33:46.077Z,38.19
2019-01-23T00:36:17.806Z,38.33
2019-01-23T00:38:49.601Z,38.32
2019-01-23T00:41:21.316Z,38.30
2019-01-23T00:43:52.881Z,38.30
2019-01-23T00:46:24.792Z,38.11
2019-01-23T00:48:55.500Z,38.37
2019-01-23T00:51:27.314Z,38.88
2019-01-23T00:53:59.313Z,37.43
2019-01-23T00:56:30.797Z,36.23
2019-01-23T00:59:02.658Z,35.92
2019-01-23T01:01:33.493Z,36.07
2019-01-23T01:04:05.308Z,36.47
2019-01-23T01:06:36.883Z,36.25
2019-01-23T01:09:11.796Z,36.33
2019-01-23T01:11:43.392Z,36.03
2019-01-23T01:14:15.305Z,35.99
2019-01-23T01:16:46.843Z,36.33
2019-01-23T01:19:18.757Z,36.83
2019-01-23T01:21:49.476Z,35.82
2019-01-23T01:24:21.271Z,36.72
2019-01-23T01:26:52.853Z,37.08
2019-01-23T01:29:24.425Z,37.00
2019-01-23T01:31:56.032Z,36.33
2019-01-23T01:34:27.754Z,36.63
2019-01-23T01:36:58.518Z,36.58
2019-01-23T01:39:30.373Z,36.35
2019-01-23T01:42:02.377Z,36.35
2019-01-23T01:44:34.073Z,36.62
2019-01-23T01:47:05.775Z,37.57
2019-01-23T01:49:37.744Z,37.35
2019-01-23T01:52:08.480Z,37.84
2019-01-23T01:54:40.321Z,37.12
2019-01-23T01:57:12.329Z,37.59
2019-01-23T01:59:43.850Z,37.89
2019-01-23T02:02:15.442Z,37.97
2019-01-23T02:04:47.310Z,37.19
2019-01-23T02:07:18.900Z,37.26
2019-01-23T02:09:50.359Z,37.22
2019-01-23T02:12:22.306Z,35.79
2019-01-23T02:14:54.300Z,36.89
2019-01-23T02:17:26.306Z,36.66
2019-01-23T02:19:57.845Z,37.38
2019-01-23T02:22:29.800Z,37.70
2019-01-23T02:25:01.357Z,37.39
2019-01-23T02:27:33.620Z,38.67
2019-01-23T02:30:05.758Z,37.73
2019-01-23T02:32:36.511Z,37.73
2019-01-23T02:35:09.781Z,37.57
2019-01-23T02:37:40.500Z,37.35
2019-01-23T02:40:17.815Z,37.25
2019-01-23T02:42:49.665Z,35.71
2019-01-23T02:45:22.308Z,35.75
2019-01-23T02:47:53.910Z,35.75
2019-01-23T02:50:25.775Z,36.31
2019-01-23T02:52:56.503Z,35.69
2019-01-23T02:55:28.318Z,35.34
2019-01-23T02:57:59.863Z,35.06
2019-01-23T03:00:31.410Z,36.00
2019-01-23T03:03:03.314Z,35.49
2019-01-23T03:05:34.861Z,36.91
2019-01-23T03:08:07.854Z,35.68
2019-01-23T03:10:39.397Z,35.51
2019-01-23T03:13:11.317Z,36.31
2019-01-23T03:15:42.849Z,36.92
2019-01-23T03:18:14.779Z,36.78
2019-01-23T03:20:45.456Z,36.32
2019-01-23T03:23:17.314Z,35.81
2019-01-23T03:25:48.834Z,35.27
2019-01-23T03:28:20.380Z,35.17
2019-01-23T03:30:52.310Z,35.27
2019-01-23T03:33:23.915Z,36.10
2019-01-23T03:35:55.746Z,35.98
2019-01-23T03:38:26.935Z,35.76
2019-01-23T03:40:58.806Z,36.93
2019-01-23T03:43:30.437Z,35.94
2019-01-23T03:46:02.069Z,36.85
2019-01-23T03:48:33.792Z,37.04
2019-01-23T03:51:04.530Z,37.64
2019-01-23T03:53:36.810Z,37.24
2019-01-23T03:56:08.426Z,37.05
2019-01-23T03:58:40.062Z,36.43
2019-01-23T04:01:11.782Z,37.35
2019-01-23T04:03:42.646Z,37.02
2019-01-23T04:06:14.589Z,37.83
2019-01-23T04:08:46.314Z,37.19
2019-01-23T04:11:17.815Z,37.19
2019-01-23T04:13:49.410Z,35.69
2019-01-23T04:16:21.074Z,37.42
2019-01-23T04:18:52.780Z,37.30
2019-01-23T04:21:23.450Z,36.89
2019-01-23T04:23:55.304Z,37.72
2019-01-23T04:26:26.870Z,37.62
2019-01-23T04:28:58.454Z,37.45
2019-01-23T04:31:30.065Z,37.44
2019-01-23T04:34:01.811Z,37.51
2019-01-23T04:36:33.749Z,36.78
2019-01-23T04:39:07.764Z,37.33
2019-01-23T04:41:39.369Z,36.92
2019-01-23T04:44:11.029Z,37.29
2019-01-23T04:46:42.778Z,36.90
2019-01-23T04:49:13.658Z,37.46
2019-01-23T04:51:54.288Z,36.04
2019-01-23T04:54:25.911Z,36.04
2019-01-23T04:56:57.408Z,37.57
2019-01-23T04:59:29.040Z,38.51
2019-01-23T05:02:00.785Z,36.82
2019-01-23T05:04:31.493Z,37.71
2019-01-23T05:07:03.315Z,37.65
2019-01-23T05:09:35.313Z,37.27
2019-01-23T05:12:07.312Z,36.98
2019-01-23T05:14:38.869Z,35.60
2019-01-23T05:17:10.416Z,35.63
2019-01-23T05:19:42.324Z,35.84
2019-01-23T05:22:13.953Z,35.22
2019-01-23T05:24:45.753Z,34.97
2019-01-23T05:27:16.483Z,35.02
2019-01-23T05:29:54.797Z,34.47
2019-01-23T05:32:21.842Z,35.07
2019-01-23T05:34:53.622Z,34.52
2019-01-23T05:37:25.312Z,34.72
2019-01-23T05:39:57.317Z,34.72
2019-01-23T05:42:28.849Z,34.34
2019-01-23T05:45:00.446Z,33.68
2019-01-23T05:47:32.280Z,33.71
2019-01-23T05:50:03.852Z,33.80
2019-01-23T05:52:35.620Z,34.06
2019-01-23T05:55:08.754Z,34.90
2019-01-23T05:57:39.500Z,34.90
2019-01-23T06:00:16.791Z,34.38
2019-01-23T06:02:48.366Z,34.75
2019-01-23T06:05:20.501Z,34.74
2019-01-23T06:07:56.774Z,34.75
2019-01-23T06:10:28.086Z,35.45
2019-01-23T06:12:59.757Z,36.00
2019-01-23T06:15:30.460Z,35.50
2019-01-23T06:18:02.278Z,35.25
2019-01-23T06:20:33.849Z,35.56
2019-01-23T06:23:05.647Z,35.84
2019-01-23T06:25:36.877Z,35.78
2019-01-23T06:28:08.753Z,33.94
2019-01-23T06:30:39.464Z,35.76
2019-01-23T06:33:11.609Z,35.79
2019-01-23T06:35:43.369Z,36.29
2019-01-23T06:38:15.052Z,36.29
2019-01-23T06:40:46.798Z,35.68
2019-01-23T06:43:17.946Z,36.52
2019-01-23T06:45:49.782Z,34.92
2019-01-23T06:48:20.718Z,35.17
2019-01-23T06:50:51.529Z,34.92
2019-01-23T06:53:23.266Z,36.17
2019-01-23T06:55:54.816Z,36.42
2019-01-23T06:58:26.505Z,36.23
2019-01-23T07:00:58.268Z,36.08
2019-01-23T07:03:29.816Z,35.65
2019-01-23T07:06:01.672Z,36.14
2019-01-23T07:08:32.473Z,35.96
2019-01-23T07:11:04.318Z,36.20
2019-01-23T07:13:36.028Z,35.14
2019-01-23T07:16:07.766Z,36.32
2019-01-23T07:18:38.493Z,35.27
2019-01-23T07:21:10.313Z,35.15
2019-01-23T07:23:42.322Z,33.21
2019-01-23T07:26:13.848Z,34.76
2019-01-23T07:28:49.117Z,33.67
2019-01-23T07:31:18.787Z,34.25
2019-01-23T07:33:50.525Z,33.35
2019-01-23T07:36:23.498Z,32.72
2019-01-23T07:38:55.345Z,34.54
2019-01-23T07:41:27.315Z,34.54
2019-01-23T07:43:58.866Z,32.85
2019-01-23T07:46:30.774Z,35.14
2019-01-23T07:49:02.399Z,34.76
2019-01-23T07:51:34.065Z,35.82
2019-01-23T07:54:05.808Z,34.66
2019-01-23T07:56:37.613Z,35.74
2019-01-23T07:59:10.013Z,35.03
2019-01-23T08:01:41.820Z,35.03
2019-01-23T08:04:13.627Z,36.34
2019-01-23T08:06:45.890Z,34.97
2019-01-23T08:09:17.838Z,34.97
2019-01-23T08:11:49.662Z,35.71
2019-01-23T08:14:21.816Z,35.21
2019-01-23T08:16:53.630Z,35.21
2019-01-23T08:19:25.360Z,34.58
2019-01-23T08:21:57.810Z,34.58
2019-01-23T08:24:28.711Z,34.56
2019-01-23T08:26:59.614Z,35.49
2019-01-23T08:29:31.397Z,34.71
2019-01-23T08:32:03.309Z,34.71
2019-01-23T08:34:35.752Z,35.04
2019-01-23T08:37:06.476Z,34.88
2019-01-23T08:39:38.310Z,34.27
2019-01-23T08:42:09.902Z,36.02
2019-01-23T08:44:41.397Z,36.31
2019-01-23T08:47:13.061Z,35.40
2019-01-23T08:49:45.642Z,35.12
2019-01-23T08:52:17.410Z,35.38
2019-01-23T08:54:49.058Z,35.07
2019-01-23T08:57:20.764Z,34.34
2019-01-23T08:59:51.483Z,35.77
2019-01-23T09:02:23.317Z,36.85
2019-01-23T09:04:54.896Z,35.61
2019-01-23T09:07:26.645Z,35.29
2019-01-23T09:09:58.375Z,32.84
2019-01-23T09:12:30.070Z,32.84
2019-01-23T09:15:01.796Z,32.90
2019-01-23T09:17:33.377Z,33.82
2019-01-23T09:20:05.389Z,32.95
2019-01-23T09:22:37.321Z,34.20
2019-01-23T09:25:12.740Z,33.34
2019-01-23T09:27:43.859Z,32.66
2019-01-23T09:30:28.297Z,32.08
2019-01-23T09:34:16.629Z,32.82
2019-01-23T09:37:34.318Z,33.28
2019-01-23T09:40:59.633Z,33.28
2019-01-23T09:45:01.313Z,33.43
2019-01-23T09:48:57.469Z,33.43
2019-01-23T09:52:55.753Z,33.75
2019-01-23T09:55:27.263Z,34.18
2019-01-23T09:58:09.124Z,32.69
2019-01-23T10:00:40.764Z,32.24
2019-01-23T10:03:11.632Z,33.82
2019-01-23T10:05:43.369Z,35.24
2019-01-23T10:08:15.045Z,35.24
2019-01-23T10:10:46.807Z,35.61
2019-01-23T10:13:18.749Z,35.07
2019-01-23T10:16:00.518Z,35.07
2019-01-23T10:18:32.402Z,33.79
2019-01-23T10:21:04.070Z,33.35
2019-01-23T10:23:35.756Z,33.84
2019-01-23T10:26:06.479Z,33.54
2019-01-23T10:28:38.282Z,34.19
2019-01-23T10:31:09.866Z,33.26
2019-01-23T10:33:41.428Z,33.40
2019-01-23T10:36:13.066Z,34.28
2019-01-23T10:38:44.774Z,33.58
2019-01-23T10:41:15.492Z,32.85
2019-01-23T10:43:47.349Z,33.31
2019-01-23T10:46:19.072Z,35.40
2019-01-23T10:48:50.817Z,35.45
2019-01-23T10:51:22.736Z,33.86
2019-01-23T10:53:54.770Z,34.77
2019-01-23T10:56:25.455Z,35.44
2019-01-23T10:58:57.593Z,34.69
2019-01-23T11:01:29.366Z,34.01
2019-01-23T11:04:01.079Z,34.01
2019-01-23T11:06:32.774Z,32.60
2019-01-23T11:09:04.318Z,32.63
2019-01-23T11:11:36.055Z,32.02
2019-01-23T11:14:07.730Z,31.56
2019-01-23T11:16:39.742Z,31.33
2019-01-23T11:19:11.370Z,32.97
2019-01-23T11:21:43.029Z,31.90
2019-01-23T11:24:14.874Z,31.82
2019-01-23T11:26:46.725Z,31.02
2019-01-23T11:29:17.459Z,32.40
2019-01-23T11:31:49.324Z,33.39
2019-01-23T11:34:21.297Z,33.10
2019-01-23T11:36:52.855Z,32.55
2019-01-23T11:39:24.430Z,31.20
2019-01-23T11:41:56.057Z,31.90
2019-01-23T11:44:27.770Z,32.93
2019-01-23T11:46:58.462Z,32.75
2019-01-23T11:49:30.316Z,31.40
2019-01-23T11:52:01.830Z,32.72
2019-01-23T11:54:33.567Z,31.72
2019-01-23T11:57:05.370Z,31.94
2019-01-23T11:59:37.065Z,31.94
2019-01-23T12:02:08.778Z,31.77
2019-01-23T12:04:39.455Z,32.51
2019-01-23T12:07:11.306Z,33.94
2019-01-23T12:09:42.857Z,33.43
2019-01-23T12:12:14.613Z,33.72
2019-01-23T12:14:46.342Z,32.77
2019-01-23T12:17:17.897Z,32.77
2019-01-23T12:19:49.580Z,32.77
2019-01-23T12:22:21.381Z,34.16
2019-01-23T12:24:53.062Z,34.16
2019-01-23T12:27:25.029Z,31.74
2019-01-23T12:29:56.749Z,33.08
2019-01-23T12:32:27.503Z,33.05
2019-01-23T12:35:00.428Z,32.08
2019-01-23T12:37:32.757Z,31.28
2019-01-23T12:40:03.444Z,31.28
2019-01-23T12:42:35.309Z,31.53
2019-01-23T12:45:10.754Z,32.04
2019-01-23T12:47:41.476Z,32.74
2019-01-23T12:50:17.260Z,33.87
2019-01-23T12:52:48.875Z,31.93
2019-01-23T12:55:20.758Z,32.15
2019-01-23T12:57:51.915Z,32.25
2019-01-23T13:00:28.372Z,33.21
2019-01-23T13:03:00.754Z,33.30
2019-01-23T13:05:32.772Z,31.56
2019-01-23T13:08:03.450Z,32.68
2019-01-23T13:10:35.310Z,32.33
2019-01-23T13:13:07.092Z,32.15
2019-01-23T13:15:38.761Z,31.99
2019-01-23T13:18:11.191Z,31.92
2019-01-23T13:20:42.877Z,32.38
2019-01-23T13:23:19.675Z,33.55
2019-01-23T13:25:48.296Z,32.31
2019-01-23T13:28:19.820Z,32.35
2019-01-23T13:30:51.652Z,32.40
2019-01-23T13:33:22.445Z,32.83
2019-01-23T13:35:54.053Z,32.10
2019-01-23T13:38:25.744Z,31.57
2019-01-23T13:40:56.600Z,32.89
2019-01-23T13:43:28.305Z,32.21
2019-01-23T13:46:00.054Z,32.21
2019-01-23T13:48:31.766Z,32.12
2019-01-23T13:51:02.495Z,32.74
2019-01-23T13:53:34.296Z,31.49
2019-01-23T13:56:06.302Z,33.20
2019-01-23T13:58:41.775Z,32.39
2019-01-23T14:01:11.305Z,31.57
2019-01-23T14:03:42.826Z,31.57
2019-01-23T14:06:14.778Z,30.55
2019-01-23T14:08:45.445Z,30.85
2019-01-23T14:11:17.306Z,31.56
2019-01-23T14:13:49.309Z,31.02
2019-01-23T14:16:20.870Z,32.25
2019-01-23T14:18:53.312Z,32.25
2019-01-23T14:21:24.834Z,30.78
2019-01-23T14:23:56.380Z,30.77
2019-01-23T14:26:28.069Z,29.66
2019-01-23T14:28:59.777Z,31.81
2019-01-23T14:31:30.492Z,31.80
2019-01-23T14:34:02.643Z,32.20
2019-01-23T14:36:34.308Z,32.53
2019-01-23T14:39:08.752Z,32.53
2019-01-23T14:41:39.448Z,31.95
2019-01-23T14:44:11.279Z,33.08
2019-01-23T14:46:42.889Z,32.31
2019-01-23T14:49:14.778Z,32.23
2019-01-23T14:51:45.499Z,32.40
2019-01-23T14:54:17.312Z,32.10
2019-01-23T14:56:49.315Z,32.19
2019-01-23T14:59:20.832Z,31.81
2019-01-23T15:01:52.625Z,32.17
2019-01-23T15:04:24.390Z,27.22
2019-01-23T15:06:56.020Z,27.22
2019-01-23T15:09:27.760Z,26.08
2019-01-23T15:11:58.727Z,25.38
2019-01-23T15:14:29.460Z,25.16
2019-01-23T15:17:01.315Z,24.82
2019-01-23T15:19:32.828Z,24.86
2019-01-23T15:22:04.594Z,25.28
2019-01-23T15:24:36.311Z,25.08
2019-01-23T15:27:07.861Z,25.08
2019-01-23T15:29:39.396Z,24.46
2019-01-23T15:32:16.982Z,24.64
2019-01-23T15:34:44.549Z,24.46
2019-01-23T15:37:16.406Z,24.13
2019-01-23T15:39:49.253Z,24.13
2019-01-23T15:42:21.074Z,23.91
2019-01-23T15:44:52.749Z,24.31
2019-01-23T15:47:24.384Z,24.65
2019-01-23T15:49:56.062Z,24.73
2019-01-23T15:52:27.785Z,25.50
2019-01-23T15:54:58.456Z,26.29
2019-01-23T15:57:30.077Z,25.95
2019-01-23T16:00:01.896Z,26.19
2019-01-23T16:02:33.447Z,26.91
2019-01-23T16:05:05.649Z,27.31
2019-01-23T16:07:37.374Z,27.45
2019-01-23T16:10:10.881Z,27.45
2019-01-23T16:12:42.855Z,27.66
2019-01-23T16:15:15.318Z,27.43
2019-01-23T16:17:47.069Z,27.98
2019-01-23T16:20:18.748Z,28.86
2019-01-23T16:22:49.649Z,31.29
2019-01-23T16:25:21.360Z,28.63
2019-01-23T16:27:53.503Z,28.63
2019-01-23T16:30:39.383Z,28.13
2019-01-23T16:33:11.369Z,29.28
2019-01-23T16:35:43.066Z,30.63
2019-01-23T16:38:14.753Z,29.76
2019-01-23T16:40:45.447Z,29.44
2019-01-23T16:43:17.313Z,30.10
2019-01-23T16:45:48.828Z,29.83
2019-01-23T16:48:20.794Z,31.52
2019-01-23T16:50:51.453Z,30.04
2019-01-23T16:53:24.216Z,29.58
2019-01-23T16:55:56.310Z,29.88
2019-01-23T16:58:27.833Z,31.71
2019-01-23T17:01:00.054Z,30.87
2019-01-23T17:03:31.870Z,31.10
2019-01-23T17:06:03.618Z,31.91
2019-01-23T17:08:34.923Z,31.07
2019-01-23T17:11:07.236Z,31.02
2019-01-23T17:13:39.165Z,30.06
2019-01-23T17:16:10.737Z,30.80
2019-01-23T17:18:41.464Z,29.76
2019-01-23T17:21:13.314Z,32.04
2019-01-23T17:23:44.880Z,30.94
2019-01-23T17:26:16.356Z,31.28
2019-01-23T17:28:48.472Z,31.87
2019-01-23T17:31:20.926Z,29.99
2019-01-23T17:33:53.312Z,30.71
2019-01-23T17:36:25.023Z,29.68
2019-01-23T17:39:46.613Z,29.55
2019-01-23T17:42:18.768Z,31.35
2019-01-23T17:44:49.486Z,31.35
2019-01-23T17:47:21.432Z,27.95
2019-01-23T17:49:53.036Z,27.30
2019-01-23T17:52:24.810Z,29.66
2019-01-23T17:54:56.997Z,29.95
2019-01-23T17:57:28.793Z,29.37
2019-01-23T17:59:59.478Z,28.80
2019-01-23T18:02:31.382Z,29.96
2019-01-23T18:05:03.078Z,29.48
2019-01-23T18:07:34.806Z,27.94
2019-01-23T18:10:07.305Z,29.45
2019-01-23T18:12:38.906Z,29.86
2019-01-23T18:15:14.778Z,29.38
2019-01-23T18:17:47.266Z,29.81
2019-01-23T18:20:23.498Z,30.75
2019-01-23T18:22:55.312Z,29.55
2019-01-23T18:25:27.309Z,29.44
2019-01-23T18:27:58.908Z,30.08
2019-01-23T18:30:43.985Z,26.34
2019-01-23T18:33:18.802Z,26.05
2019-01-23T18:37:01.777Z,25.61
2019-01-23T18:40:23.605Z,25.55
2019-01-23T18:44:09.770Z,25.28
2019-01-23T18:48:09.750Z,25.28
2019-01-23T18:51:20.709Z,25.10
2019-01-23T18:53:51.650Z,25.04
2019-01-23T18:56:23.345Z,25.40
2019-01-23T18:58:55.297Z,25.40
2019-01-23T19:01:26.814Z,25.16
2019-01-23T19:03:58.666Z,25.66
2019-01-23T19:06:30.365Z,27.02
2019-01-23T19:09:02.307Z,27.02
2019-01-23T19:11:34.308Z,27.04
2019-01-23T19:14:06.066Z,27.79
2019-01-23T19:16:38.298Z,31.29
2019-01-23T19:19:09.910Z,29.19
2019-01-23T19:21:41.941Z,27.33
2019-01-23T19:24:13.774Z,29.00
2019-01-23T19:26:44.549Z,28.59
2019-01-23T19:29:16.317Z,30.88
2019-01-23T19:31:48.405Z,30.88
2019-01-23T19:34:20.034Z,28.92
2019-01-23T19:36:51.777Z,28.93
2019-01-23T19:39:22.606Z,29.95
2019-01-23T19:41:54.382Z,29.99
2019-01-23T19:44:26.650Z,29.99
2019-01-23T19:46:58.312Z,30.23
2019-01-23T19:49:30.142Z,30.23
2019-01-23T19:52:01.793Z,28.75
2019-01-23T19:54:33.830Z,29.63
2019-01-23T19:57:05.578Z,29.41
2019-01-23T19:59:37.300Z,30.74
2019-01-23T20:02:09.015Z,30.74
2019-01-23T20:04:40.772Z,30.80
2019-01-23T20:07:11.931Z,30.18
2019-01-23T20:09:43.792Z,29.71
2019-01-23T20:12:15.795Z,30.52
2019-01-23T20:14:48.330Z,30.45
2019-01-23T20:17:20.229Z,30.23
2019-01-23T20:19:51.786Z,31.95
2019-01-23T20:22:22.480Z,31.22
2019-01-23T20:24:54.297Z,31.61
2019-01-23T20:27:25.852Z,31.20
2019-01-23T20:29:57.702Z,32.09
2019-01-23T20:32:29.405Z,31.42
2019-01-23T20:35:01.343Z,30.80
2019-01-23T20:37:33.504Z,31.70
2019-01-23T20:40:06.064Z,30.67
2019-01-23T20:42:37.847Z,31.34
2019-01-23T20:45:13.378Z,29.75
2019-01-23T20:47:45.301Z,31.00
2019-01-23T20:50:28.720Z,30.94
2019-01-23T20:52:59.487Z,32.04
2019-01-23T20:55:31.306Z,31.40
2019-01-23T20:58:03.293Z,31.92
2019-01-23T21:00:36.060Z,31.29
2019-01-23T21:03:08.297Z,30.68
2019-01-23T21:05:42.093Z,31.34
2019-01-23T21:08:13.776Z,32.66
2019-01-23T21:10:44.486Z,31.51
2019-01-23T21:13:16.306Z,33.04
2019-01-23T21:15:48.034Z,32.87
2019-01-23T21:18:19.741Z,32.23
2019-01-23T21:20:51.374Z,31.23
2019-01-23T21:25:19.623Z,31.34
2019-01-23T21:28:41.637Z,32.29
2019-01-23T21:31:13.720Z,30.66
2019-01-23T21:33:44.646Z,30.66
2019-01-23T21:36:16.468Z,30.65
2019-01-23T21:38:48.059Z,30.65
2019-01-23T21:41:19.734Z,31.04
2019-01-23T21:43:50.938Z,30.53
2019-01-23T21:46:22.762Z,30.38
2019-01-23T21:48:53.480Z,30.53
2019-01-23T21:51:28.474Z,29.88
2019-01-23T21:54:00.609Z,31.18
2019-01-23T21:56:32.394Z,30.64
2019-01-23T21:59:04.301Z,30.64
2019-01-23T22:01:36.019Z,30.35
2019-01-23T22:06:39.869Z,30.03
2019-01-23T22:09:11.392Z,30.84
2019-01-23T22:11:43.605Z,30.93
2019-01-23T22:14:15.748Z,31.77
2019-01-23T22:16:47.889Z,30.91
2019-01-23T22:19:19.728Z,30.19
2019-01-23T22:21:51.614Z,30.69
2019-01-23T22:24:23.616Z,30.95
2019-01-23T22:26:55.338Z,31.04
2019-01-23T22:29:27.062Z,31.04
2019-01-23T22:31:58.733Z,30.40
2019-01-23T22:34:29.444Z,31.18
2019-01-23T22:37:01.300Z,31.43
2019-01-23T22:39:32.867Z,30.68
2019-01-23T22:42:04.769Z,32.06
2019-01-23T22:44:35.649Z,31.60
2019-01-23T22:47:07.366Z,32.20
2019-01-23T22:49:39.306Z,32.20
2019-01-23T22:52:11.259Z,31.71
2019-01-23T22:54:43.303Z,30.83
2019-01-23T22:57:15.332Z,32.45
2019-01-23T22:59:47.316Z,31.55
2019-01-23T23:02:18.985Z,32.03
2019-01-23T23:04:50.775Z,33.12
2019-01-23T23:07:21.716Z,32.42
2019-01-23T23:09:52.474Z,32.37
2019-01-23T23:12:24.288Z,32.19
2019-01-23T23:14:56.304Z,31.87
2019-01-23T23:17:29.901Z,32.38
2019-01-23T23:20:01.714Z,32.21
2019-01-23T23:22:32.522Z,31.83
2019-01-23T23:25:04.398Z,31.38
2019-01-23T23:27:39.529Z,32.80
2019-01-23T23:30:13.485Z,32.87
2019-01-23T23:32:45.308Z,32.73
2019-01-23T23:35:17.033Z,32.10
2019-01-23T23:37:48.802Z,32.32
2019-01-23T23:40:20.606Z,31.96
2019-01-23T23:42:52.781Z,32.57
2019-01-23T23:45:23.648Z,32.57
2019-01-23T23:47:55.795Z,32.49
2019-01-23T23:50:26.652Z,32.49
2019-01-23T23:52:58.863Z,32.10
2019-01-23T23:55:30.792Z,32.52
2019-01-23T23:58:02.824Z,32.17
